Time;durP1;ratioP1;P1;durP2;ratioP2;P2;SDS_P1;SDS_P2;PMS_P1;PMS_P2;Temp;Humidity;BMP_temperature;BMP_pressure;BME280_temperature;BME280_humidity;BME280_pressure;Samples;Min_cycle;Max_cycle;Signal;HPM_P1;HPM_P2
2021/11/20 00:02:27;;;;;;;14.00;5.32;;;11.40;99.90;;;;;;5028050;28;20018;-79
2021/11/20 00:04:54;;;;;;;11.95;4.85;;;11.40;99.90;;;;;;5026444;28;20030;-76
2021/11/20 00:07:21;;;;;;;15.82;5.07;;;11.40;99.90;;;;;;5027990;28;20060;-74
2021/11/20 00:09:48;;;;;;;16.10;5.40;;;11.40;99.90;;;;;;5043120;28;20037;-74
2021/11/20 00:12:24;;;;;;;15.57;5.72;;;11.40;99.90;;;;;;5027709;28;20466;-78
2021/11/20 00:14:50;;;;;;;12.68;3.85;;;11.40;99.90;;;;;;5026389;28;20052;-75
2021/11/20 00:17:16;;;;;;;6.28;3.28;;;11.40;99.90;;;;;;5025922;28;20025;-76
2021/11/20 00:19:42;;;;;;;10.07;4.28;;;11.40;99.90;;;;;;5025971;28;20071;-74
2021/11/20 00:22:13;;;;;;;10.50;4.00;;;11.40;99.90;;;;;;5026195;28;20030;-77
2021/11/20 00:24:41;;;;;;;12.70;4.07;;;11.40;99.90;;;;;;5027312;28;20430;-75
2021/11/20 00:27:10;;;;;;;7.85;3.42;;;11.40;99.90;;;;;;5025914;28;20022;-76
2021/11/20 00:32:21;;;;;;;21.92;4.28;;;11.40;99.90;;;;;;5027711;28;20041;-76
2021/11/20 00:34:48;;;;;;;26.60;4.32;;;11.40;99.90;;;;;;5027160;28;20077;-76
2021/11/20 00:37:14;;;;;;;14.20;4.65;;;11.40;99.90;;;;;;5027425;28;20022;-77
2021/11/20 00:39:40;;;;;;;16.55;5.30;;;11.40;99.90;;;;;;5027130;28;20057;-77
2021/11/20 00:42:07;;;;;;;8.63;4.00;;;11.40;99.90;;;;;;5025929;28;20394;-76
2021/11/20 00:44:34;;;;;;;16.95;4.32;;;11.50;99.90;;;;;;5027023;28;20053;-78
2021/11/20 00:46:59;;;;;;;24.52;4.13;;;11.40;99.90;;;;;;5025653;28;20094;-77
2021/11/20 00:49:25;;;;;;;8.55;3.63;;;11.40;99.90;;;;;;5026823;28;20064;-77
2021/11/20 00:51:52;;;;;;;11.00;4.60;;;11.40;99.90;;;;;;5027056;28;20474;-76
2021/11/20 00:54:18;;;;;;;17.92;4.30;;;11.40;99.90;;;;;;5025819;28;20418;-76
2021/11/20 00:56:44;;;;;;;22.35;4.50;;;11.50;99.90;;;;;;5025495;28;20104;-74
2021/11/20 00:59:11;;;;;;;22.05;4.70;;;11.40;99.90;;;;;;5026849;28;20038;-77
2021/11/20 01:01:45;;;;;;;13.57;4.93;;;11.40;99.90;;;;;;5026783;28;20026;-75
2021/11/20 01:04:11;;;;;;;10.02;4.50;;;11.40;99.90;;;;;;5026596;28;20030;-75
2021/11/20 01:06:39;;;;;;;13.38;4.00;;;11.40;99.90;;;;;;5026651;28;20034;-74
2021/11/20 01:09:05;;;;;;;20.10;3.83;;;11.40;99.90;;;;;;5025309;28;20034;-75
2021/11/20 01:11:50;;;;;;;7.75;3.92;;;11.50;99.90;;;;;;5041847;28;20048;-76
2021/11/20 01:14:17;;;;;;;12.02;5.28;;;11.40;99.90;;;;;;5026626;28;20072;-73
2021/11/20 01:16:45;;;;;;;11.88;4.82;;;11.40;99.90;;;;;;5026866;28;20033;-78
2021/11/20 01:19:11;;;;;;;21.98;4.97;;;11.40;99.90;;;;;;5026246;28;20090;-75
2021/11/20 01:21:38;;;;;;;12.00;3.58;;;11.40;99.90;;;;;;5026423;28;20030;-79
2021/11/20 01:24:05;;;;;;;13.35;4.90;;;11.30;99.90;;;;;;5025025;28;20454;-75
2021/11/20 01:26:31;;;;;;;15.68;4.45;;;11.40;99.90;;;;;;5025017;28;20057;-74
2021/11/20 01:28:58;;;;;;;14.80;4.43;;;11.40;99.90;;;;;;5026236;28;20027;-77
2021/11/20 01:31:27;;;;;;;14.93;4.47;;;11.40;99.90;;;;;;5040980;28;20057;-78
2021/11/20 01:33:54;;;;;;;11.50;3.72;;;11.30;99.90;;;;;;5024372;28;20054;-79
2021/11/20 01:36:26;;;;;;;13.73;4.60;;;11.40;99.90;;;;;;5025045;28;20115;-80
2021/11/20 01:38:54;;;;;;;20.77;5.50;;;11.30;99.90;;;;;;5024974;28;20034;-76
2021/11/20 01:41:22;;;;;;;16.30;4.72;;;11.30;99.90;;;;;;5024760;28;20030;-78
2021/11/20 01:43:54;;;;;;;18.15;4.18;;;11.30;99.90;;;;;;5024985;28;20034;-78
2021/11/20 01:46:24;;;;;;;19.13;5.47;;;11.30;99.90;;;;;;5025551;28;20025;-75
2021/11/20 01:49:04;;;;;;;17.15;5.65;;;11.30;99.90;;;;;;5026151;28;20084;-75
2021/11/20 01:51:40;;;;;;;25.08;5.88;;;11.20;99.90;;;;;;5025884;28;20041;-78
2021/11/20 01:54:24;;;;;;;7.97;4.00;;;11.20;99.90;;;;;;5040983;28;20041;-76
2021/11/20 01:57:08;;;;;;;16.02;4.43;;;11.20;99.90;;;;;;5040944;28;20038;-75
2021/11/20 02:00:17;;;;;;;8.13;4.20;;;11.20;99.90;;;;;;5025549;28;20114;-77
2021/11/20 02:02:55;;;;;;;28.60;4.43;;;11.20;99.90;;;;;;5025576;28;20267;-78
2021/11/20 02:05:33;;;;;;;16.35;4.72;;;11.20;99.90;;;;;;5024414;28;20122;-78
2021/11/20 02:08:04;;;;;;;20.42;5.38;;;11.20;99.90;;;;;;5025578;28;20056;-76
2021/11/20 02:10:50;;;;;;;13.95;4.55;;;11.20;99.90;;;;;;5026150;28;20026;-76
2021/11/20 02:13:19;;;;;;;14.48;5.13;;;11.20;99.90;;;;;;5025546;28;20046;-75
2021/11/20 02:16:00;;;;;;;18.20;5.65;;;11.10;99.90;;;;;;5025477;28;20053;-76
2021/11/20 02:18:37;;;;;;;21.58;6.20;;;11.10;99.90;;;;;;5025505;28;20030;-80
2021/11/20 02:21:19;;;;;;;18.67;5.80;;;11.10;99.90;;;;;;5024220;28;20030;-79
2021/11/20 02:23:44;;;;;;;16.85;4.90;;;11.10;99.90;;;;;;5023449;28;20064;-78
2021/11/20 02:26:10;;;;;;;14.55;5.43;;;11.10;99.90;;;;;;5024178;28;20053;-78
2021/11/20 02:28:36;;;;;;;26.45;6.25;;;11.10;99.90;;;;;;5042362;28;20449;-77
2021/11/20 02:31:04;;;;;;;14.52;4.82;;;11.10;99.90;;;;;;5044845;28;20022;-76
2021/11/20 02:33:39;;;;;;;11.70;4.78;;;11.10;99.90;;;;;;5044594;28;20057;-78
2021/11/20 02:36:13;;;;;;;28.17;6.20;;;11.10;99.90;;;;;;5045389;28;20044;-73
2021/11/20 02:38:58;;;;;;;13.23;6.82;;;11.10;99.90;;;;;;5043943;28;20052;-79
2021/11/20 02:41:27;;;;;;;15.00;5.60;;;11.10;99.90;;;;;;5044050;28;20087;-78
2021/11/20 02:43:56;;;;;;;9.57;5.20;;;11.10;99.90;;;;;;5044802;28;20073;-78
2021/11/20 02:46:25;;;;;;;14.50;5.72;;;11.10;99.90;;;;;;5045178;28;20025;-78
2021/11/20 02:49:00;;;;;;;13.43;5.47;;;11.10;99.90;;;;;;5045053;28;20537;-80
2021/11/20 02:51:29;;;;;;;14.48;5.78;;;11.10;99.90;;;;;;5043713;28;20028;-77
2021/11/20 02:54:03;;;;;;;16.30;5.75;;;11.00;99.90;;;;;;5042997;28;20104;-79
2021/11/20 02:56:34;;;;;;;13.20;5.40;;;11.00;99.90;;;;;;5044952;28;20025;-79
2021/11/20 02:59:01;;;;;;;24.08;5.72;;;11.00;99.90;;;;;;5044772;28;20033;-78
2021/11/20 03:01:33;;;;;;;17.40;5.68;;;11.00;99.90;;;;;;5040267;28;20093;-80
2021/11/20 03:03:59;;;;;;;30.63;5.88;;;11.00;99.90;;;;;;5023565;28;20065;-81
2021/11/20 03:06:29;;;;;;;13.38;6.03;;;10.90;99.90;;;;;;5023223;28;20093;-81
2021/11/20 03:08:55;;;;;;;14.07;5.63;;;11.00;99.90;;;;;;5024666;28;20099;-79
2021/11/20 03:11:23;;;;;;;29.20;6.13;;;11.00;99.90;;;;;;5028943;28;20026;-78
2021/11/20 03:13:52;;;;;;;15.70;5.85;;;11.00;99.90;;;;;;5025086;28;20036;-80
2021/11/20 03:16:18;;;;;;;16.02;7.32;;;11.10;99.90;;;;;;5025407;28;20034;-78
2021/11/20 03:18:44;;;;;;;22.00;6.53;;;11.00;99.90;;;;;;5039786;28;20387;-79
2021/11/20 03:21:14;;;;;;;16.52;6.07;;;11.00;99.90;;;;;;5024462;28;20037;-80
2021/11/20 03:23:45;;;;;;;20.73;6.65;;;11.00;99.90;;;;;;5023312;28;20034;-80
2021/11/20 03:26:11;;;;;;;17.80;5.00;;;11.00;99.90;;;;;;5023254;28;20108;-76
2021/11/20 03:28:36;;;;;;;15.02;5.43;;;11.00;99.90;;;;;;5024615;28;20026;-78
2021/11/20 03:31:02;;;;;;;22.55;6.55;;;10.90;99.90;;;;;;5024418;28;20041;-77
2021/11/20 03:33:28;;;;;;;17.20;6.20;;;11.00;99.90;;;;;;5024089;28;20057;-78
2021/11/20 03:35:54;;;;;;;19.00;6.18;;;11.00;99.90;;;;;;5024538;28;20026;-79
2021/11/20 03:38:20;;;;;;;9.07;4.70;;;11.00;99.90;;;;;;5023763;28;20038;-78
2021/11/20 03:40:46;;;;;;;22.42;6.82;;;11.00;99.90;;;;;;5024618;28;20037;-77
2021/11/20 03:43:12;;;;;;;17.58;5.80;;;11.10;99.90;;;;;;5024316;28;20033;-79
2021/11/20 03:45:38;;;;;;;16.35;6.50;;;11.10;99.90;;;;;;5023194;28;20026;-78
2021/11/20 03:48:05;;;;;;;13.38;5.72;;;11.10;99.90;;;;;;5023088;28;20030;-79
2021/11/20 03:50:32;;;;;;;16.52;5.05;;;11.10;99.90;;;;;;5022911;28;20029;-78
2021/11/20 03:52:58;;;;;;;11.85;5.30;;;11.00;99.90;;;;;;5024186;28;20054;-75
2021/11/20 03:55:27;;;;;;;20.00;6.75;;;11.00;99.90;;;;;;5025944;28;20021;-76
2021/11/20 03:57:53;;;;;;;15.68;6.47;;;11.00;99.90;;;;;;5027878;28;20034;-76
2021/11/20 04:00:23;;;;;;;13.85;5.40;;;11.10;99.90;;;;;;5026485;28;20052;-76
2021/11/20 04:02:49;;;;;;;21.60;6.82;;;11.10;99.90;;;;;;5026626;28;20022;-77
2021/11/20 04:05:19;;;;;;;19.02;7.22;;;11.00;99.90;;;;;;5027972;28;20085;-76
2021/11/20 04:07:44;;;;;;;10.70;4.88;;;11.00;99.90;;;;;;5027713;28;20096;-79
2021/11/20 04:10:11;;;;;;;11.60;5.70;;;11.00;99.90;;;;;;5027809;28;20600;-78
2021/11/20 04:12:39;;;;;;;19.92;7.68;;;11.00;99.90;;;;;;5025877;28;20053;-76
2021/11/20 04:15:07;;;;;;;15.35;7.50;;;11.00;99.90;;;;;;5026366;28;20105;-79
2021/11/20 04:17:34;;;;;;;17.95;6.88;;;11.00;99.90;;;;;;5027480;28;20026;-77
2021/11/20 04:19:59;;;;;;;18.20;6.32;;;11.00;99.90;;;;;;5027398;28;20466;-76
2021/11/20 04:22:26;;;;;;;13.48;6.05;;;11.00;99.90;;;;;;5027759;28;20036;-75
2021/11/20 04:24:52;;;;;;;19.00;7.25;;;11.00;99.90;;;;;;5027471;28;20060;-76
2021/11/20 04:27:17;;;;;;;19.58;6.85;;;11.00;99.90;;;;;;5027638;28;20026;-78
2021/11/20 04:29:43;;;;;;;15.50;7.60;;;11.00;99.90;;;;;;5025924;28;20030;-76
2021/11/20 04:32:10;;;;;;;16.45;6.38;;;11.00;99.90;;;;;;5042342;28;20030;-76
2021/11/20 04:34:47;;;;;;;19.10;6.68;;;11.00;99.90;;;;;;5025419;28;20053;-78
2021/11/20 04:37:16;;;;;;;22.95;7.80;;;11.00;99.90;;;;;;5026024;28;20040;-78
2021/11/20 04:39:41;;;;;;;20.77;7.40;;;11.00;99.90;;;;;;5025234;28;20076;-78
2021/11/20 04:42:07;;;;;;;15.00;5.43;;;11.00;99.90;;;;;;5027135;28;20034;-76
2021/11/20 04:44:33;;;;;;;18.85;5.80;;;10.90;99.90;;;;;;5042326;28;20034;-78
2021/11/20 04:46:59;;;;;;;15.60;6.32;;;11.00;99.90;;;;;;5042411;28;20034;-76
2021/11/20 04:49:25;;;;;;;24.30;6.88;;;11.00;99.90;;;;;;5027202;28;20029;-78
2021/11/20 04:51:50;;;;;;;19.58;7.50;;;11.00;99.90;;;;;;5027250;28;20033;-78
2021/11/20 04:54:16;;;;;;;13.57;6.03;;;10.90;99.90;;;;;;5026451;28;20502;-76
2021/11/20 04:56:42;;;;;;;14.93;5.97;;;10.90;99.90;;;;;;5042309;28;20037;-77
2021/11/20 04:59:07;;;;;;;14.55;5.82;;;11.00;99.90;;;;;;5025414;28;20026;-76
2021/11/20 05:01:33;;;;;;;14.30;5.38;;;10.90;99.90;;;;;;5025496;28;20052;-76
2021/11/20 05:04:01;;;;;;;19.50;5.78;;;10.90;99.90;;;;;;5025575;28;20089;-76
2021/11/20 05:06:28;;;;;;;17.48;6.57;;;11.00;99.90;;;;;;5025670;28;20033;-77
2021/11/20 05:09:00;;;;;;;15.45;5.65;;;10.90;99.90;;;;;;5026544;28;20022;-77
2021/11/20 05:11:30;;;;;;;18.88;5.85;;;10.90;99.90;;;;;;5025107;28;20029;-78
2021/11/20 05:13:57;;;;;;;14.73;6.65;;;10.90;99.90;;;;;;5026502;28;20030;-77
2021/11/20 05:16:23;;;;;;;14.85;6.20;;;10.90;99.90;;;;;;5026586;28;20026;-76
2021/11/20 05:18:50;;;;;;;26.30;6.40;;;10.90;99.90;;;;;;5026641;28;20030;-76
2021/11/20 05:21:17;;;;;;;13.98;5.80;;;10.90;99.90;;;;;;5026787;28;20025;-76
2021/11/20 05:23:43;;;;;;;13.20;5.93;;;10.90;99.90;;;;;;5026276;28;20063;-74
2021/11/20 05:26:12;;;;;;;14.18;5.55;;;10.90;99.90;;;;;;5024934;28;20064;-77
2021/11/20 05:28:39;;;;;;;15.98;6.28;;;10.90;99.90;;;;;;5041301;28;20041;-79
2021/11/20 05:31:11;;;;;;;16.13;5.78;;;10.90;99.90;;;;;;5026049;28;20037;-77
2021/11/20 05:33:42;;;;;;;14.05;5.72;;;10.90;99.90;;;;;;5025910;28;20054;-77
2021/11/20 05:36:10;;;;;;;16.92;5.47;;;10.90;99.90;;;;;;5024786;28;20030;-76
2021/11/20 05:38:36;;;;;;;18.23;6.00;;;10.90;99.90;;;;;;5026027;28;20033;-73
2021/11/20 05:41:03;;;;;;;11.85;5.32;;;10.90;99.90;;;;;;5024542;28;20022;-75
2021/11/20 05:43:29;;;;;;;23.52;7.60;;;10.90;99.90;;;;;;5025784;28;20092;-75
2021/11/20 05:46:04;;;;;;;15.25;6.90;;;10.90;99.90;;;;;;5026287;28;20037;-78
2021/11/20 05:48:30;;;;;;;14.75;6.40;;;11.00;99.90;;;;;;5025830;28;20040;-78
2021/11/20 05:50:56;;;;;;;16.40;6.35;;;10.90;99.90;;;;;;5041053;28;20120;-76
2021/11/20 05:53:24;;;;;;;13.15;5.43;;;10.90;99.90;;;;;;5024512;28;20061;-77
2021/11/20 05:55:51;;;;;;;49.90;5.63;;;10.90;99.90;;;;;;5025835;28;20064;-76
2021/11/20 05:58:18;;;;;;;14.27;6.53;;;10.90;99.90;;;;;;5024455;28;20022;-77
2021/11/20 06:00:47;;;;;;;11.00;5.72;;;10.90;99.90;;;;;;5026715;28;20030;-76
2021/11/20 06:03:15;;;;;;;20.98;7.55;;;10.90;99.90;;;;;;5026385;28;20026;-76
2021/11/20 06:05:42;;;;;;;16.23;5.60;;;10.90;99.90;;;;;;5025701;28;20030;-78
2021/11/20 06:08:08;;;;;;;17.42;6.32;;;10.90;99.90;;;;;;5024342;28;20037;-76
2021/11/20 06:10:35;;;;;;;10.00;5.35;;;10.90;99.90;;;;;;5037348;28;20026;-75
2021/11/20 06:13:02;;;;;;;16.90;7.25;;;10.90;99.90;;;;;;5043902;28;20119;-75
2021/11/20 06:15:28;;;;;;;11.43;6.30;;;10.90;99.90;;;;;;5045375;28;20049;-76
2021/11/20 06:17:53;;;;;;;26.33;7.00;;;11.00;99.90;;;;;;5045225;28;20037;-73
2021/11/20 06:20:20;;;;;;;13.40;6.30;;;11.00;99.90;;;;;;5045211;28;20025;-76
2021/11/20 06:22:47;;;;;;;18.20;6.18;;;11.00;99.90;;;;;;5045224;28;20127;-75
2021/11/20 06:25:13;;;;;;;19.17;6.78;;;11.00;99.90;;;;;;5044949;28;20022;-75
2021/11/20 06:27:38;;;;;;;12.80;5.60;;;11.00;99.90;;;;;;5043754;28;20065;-76
2021/11/20 06:30:13;;;;;;;25.02;7.55;;;11.00;99.90;;;;;;5043633;28;20478;-75
2021/11/20 06:32:40;;;;;;;18.50;6.60;;;11.00;99.90;;;;;;5044818;28;20029;-77
2021/11/20 06:35:10;;;;;;;15.68;6.70;;;11.00;99.90;;;;;;5043137;28;20041;-76
2021/11/20 06:37:37;;;;;;;22.13;7.10;;;11.00;99.90;;;;;;5025134;28;20484;-78
2021/11/20 06:40:04;;;;;;;19.02;6.90;;;11.00;99.90;;;;;;5023830;28;20065;-75
2021/11/20 06:42:30;;;;;;;21.50;6.72;;;11.00;99.90;;;;;;5024830;28;20100;-77
2021/11/20 06:44:55;;;;;;;15.50;5.78;;;11.00;99.90;;;;;;5024435;28;20028;-75
2021/11/20 06:47:21;;;;;;;25.73;6.60;;;11.00;99.90;;;;;;5042989;28;20112;-75
2021/11/20 06:49:47;;;;;;;17.95;7.82;;;11.10;99.90;;;;;;5043474;28;20076;-75
2021/11/20 06:52:12;;;;;;;13.63;6.63;;;11.00;99.90;;;;;;5034117;28;20061;-75
2021/11/20 06:54:38;;;;;;;14.32;6.85;;;11.10;99.90;;;;;;5038695;28;20103;-75
2021/11/20 06:57:05;;;;;;;17.58;6.93;;;11.10;99.90;;;;;;5025088;28;20072;-76
2021/11/20 07:02:26;;;;;;;27.38;7.13;;;11.10;99.90;;;;;;5033594;28;20056;-79
2021/11/20 07:04:52;;;;;;;14.40;6.57;;;11.00;99.90;;;;;;5060005;28;20029;-76
2021/11/20 07:07:19;;;;;;;13.20;5.97;;;11.10;99.90;;;;;;5043273;28;20021;-76
2021/11/20 07:09:47;;;;;;;16.00;5.38;;;11.00;99.90;;;;;;5044607;28;20426;-74
2021/11/20 07:12:12;;;;;;;16.63;6.53;;;11.10;99.90;;;;;;5041792;28;20040;-76
2021/11/20 07:14:38;;;;;;;13.50;6.30;;;11.10;99.90;;;;;;5032225;28;20034;-74
2021/11/20 07:17:04;;;;;;;22.35;5.95;;;11.20;99.90;;;;;;5047206;28;20044;-76
2021/11/20 07:19:30;;;;;;;27.25;5.78;;;11.10;99.90;;;;;;5046259;28;20038;-75
2021/11/20 07:21:56;;;;;;;12.60;5.97;;;11.10;99.90;;;;;;5024068;28;20029;-78
2021/11/20 07:24:22;;;;;;;10.40;4.47;;;11.10;99.90;;;;;;5037940;28;20073;-76
2021/11/20 07:26:50;;;;;;;10.25;5.35;;;11.10;99.90;;;;;;5034468;28;20025;-78
2021/11/20 07:29:17;;;;;;;11.63;5.53;;;11.10;99.90;;;;;;5029608;28;21260;-76
2021/11/20 07:31:43;;;;;;;18.00;5.85;;;11.10;99.90;;;;;;5033652;28;20021;-76
2021/11/20 07:34:10;;;;;;;11.30;5.00;;;11.10;99.90;;;;;;5048710;28;20554;-77
2021/11/20 07:36:36;;;;;;;16.42;5.18;;;11.10;99.90;;;;;;5067876;28;20055;-74
2021/11/20 07:39:07;;;;;;;10.80;5.65;;;11.10;99.90;;;;;;5068136;28;20056;-77
2021/11/20 07:41:33;;;;;;;10.48;5.60;;;11.10;99.90;;;;;;5068116;28;20096;-76
2021/11/20 07:43:58;;;;;;;8.88;4.65;;;11.10;99.90;;;;;;5067711;28;20084;-75
2021/11/20 07:46:25;;;;;;;11.10;4.75;;;11.10;99.90;;;;;;5063182;28;20036;-75
2021/11/20 07:48:51;;;;;;;14.65;5.55;;;11.10;99.90;;;;;;5045674;28;20034;-75
2021/11/20 07:51:18;;;;;;;8.88;4.72;;;11.20;99.90;;;;;;5037280;28;20057;-75
2021/11/20 07:53:45;;;;;;;13.85;4.85;;;11.20;99.90;;;;;;5040604;28;20131;-79
2021/11/20 07:56:11;;;;;;;24.48;6.75;;;11.20;99.90;;;;;;5035562;28;20041;-75
2021/11/20 07:58:42;;;;;;;11.40;4.88;;;11.20;99.90;;;;;;5046951;28;20037;-78
2021/11/20 08:01:08;;;;;;;11.98;5.22;;;11.20;99.90;;;;;;5047478;28;20108;-75
2021/11/20 08:03:35;;;;;;;11.45;5.30;;;11.20;99.90;;;;;;5047479;28;20036;-76
2021/11/20 08:06:01;;;;;;;13.25;4.43;;;11.20;99.90;;;;;;5046359;28;20109;-75
2021/11/20 08:08:26;;;;;;;13.27;4.70;;;11.20;99.90;;;;;;5046162;28;20026;-76
2021/11/20 08:10:52;;;;;;;17.35;6.93;;;11.20;99.90;;;;;;5047810;28;20030;-76
2021/11/20 08:13:20;;;;;;;22.75;9.45;;;11.20;99.90;;;;;;5035128;28;20048;-76
2021/11/20 08:15:47;;;;;;;15.05;6.20;;;11.20;99.90;;;;;;5027602;28;20056;-75
2021/11/20 08:18:13;;;;;;;18.10;5.53;;;11.20;99.90;;;;;;5046772;28;20024;-75
2021/11/20 08:20:43;;;;;;;13.50;4.90;;;11.30;99.90;;;;;;5046045;28;20064;-76
2021/11/20 08:23:12;;;;;;;11.68;4.95;;;11.30;99.90;;;;;;5047310;28;20037;-74
2021/11/20 08:25:38;;;;;;;22.13;5.80;;;11.30;99.90;;;;;;5046115;28;20060;-73
2021/11/20 08:28:05;;;;;;;10.00;4.88;;;11.30;99.90;;;;;;5047266;28;20021;-77
2021/11/20 08:30:31;;;;;;;13.98;5.47;;;11.30;99.90;;;;;;5037224;28;20026;-75
2021/11/20 08:32:59;;;;;;;12.13;5.07;;;11.30;99.90;;;;;;5030264;28;20033;-73
2021/11/20 08:35:27;;;;;;;14.23;5.57;;;11.30;99.90;;;;;;5036005;28;20025;-74
2021/11/20 08:37:53;;;;;;;14.40;6.15;;;11.30;99.90;;;;;;5048652;28;20116;-75
2021/11/20 08:40:35;;;;;;;14.13;5.10;;;11.40;99.90;;;;;;5045793;28;20032;-75
2021/11/20 08:43:02;;;;;;;15.55;4.75;;;11.40;99.90;;;;;;5046994;28;20128;-77
2021/11/20 08:45:35;;;;;;;11.45;4.75;;;11.30;99.90;;;;;;5046763;28;20026;-78
2021/11/20 08:48:02;;;;;;;22.10;6.07;;;11.40;99.90;;;;;;5035391;28;20034;-76
2021/11/20 08:50:37;;;;;;;13.88;5.68;;;11.20;99.90;;;;;;5046620;28;20026;-79
2021/11/20 08:53:03;;;;;;;15.15;5.50;;;11.40;99.90;;;;;;5045258;28;20561;-77
2021/11/20 08:55:30;;;;;;;13.80;5.10;;;11.40;99.90;;;;;;5061917;28;20060;-77
2021/11/20 08:57:56;;;;;;;14.00;6.18;;;11.40;99.90;;;;;;5045261;28;20130;-78
2021/11/20 09:00:38;;;;;;;9.13;5.07;;;11.30;99.90;;;;;;5046780;28;20034;-79
2021/11/20 09:03:26;;;;;;;11.02;5.13;;;11.40;99.90;;;;;;5037833;28;20483;-75
2021/11/20 09:06:00;;;;;;;12.35;6.30;;;11.40;99.90;;;;;;5032270;28;20041;-76
2021/11/20 09:08:41;;;;;;;23.08;6.00;;;11.40;99.90;;;;;;5034453;28;20398;-77
2021/11/20 09:11:33;;;;;;;14.07;6.18;;;11.30;99.90;;;;;;5025923;28;20558;-76
2021/11/20 09:14:15;;;;;;;16.17;6.43;;;11.40;99.90;;;;;;5052199;28;20029;-75
2021/11/20 09:16:42;;;;;;;11.50;5.95;;;11.40;99.90;;;;;;5045289;28;20021;-75
2021/11/20 09:19:08;;;;;;;9.00;4.88;;;11.40;99.90;;;;;;5035826;28;20434;-77
2021/11/20 09:21:36;;;;;;;14.90;6.30;;;11.30;99.90;;;;;;5037313;28;20013;-76
2021/11/20 09:24:02;;;;;;;12.43;6.43;;;11.40;99.90;;;;;;5044421;28;20034;-75
2021/11/20 09:26:29;;;;;;;12.50;6.00;;;11.40;99.90;;;;;;5065327;28;20032;-75
2021/11/20 09:28:57;;;;;;;15.73;5.78;;;11.40;99.90;;;;;;5064339;28;20036;-78
2021/11/20 09:31:25;;;;;;;22.55;5.15;;;11.40;99.90;;;;;;5054109;28;20036;-77
2021/11/20 09:33:53;;;;;;;13.65;6.40;;;11.40;99.90;;;;;;5044070;28;20128;-77
2021/11/20 09:36:20;;;;;;;21.70;6.68;;;11.40;99.90;;;;;;5043981;28;20026;-76
2021/11/20 09:38:46;;;;;;;15.57;6.63;;;11.40;99.90;;;;;;5046014;28;20024;-75
2021/11/20 09:41:22;;;;;;;17.02;6.43;;;11.40;99.90;;;;;;5044213;28;20037;-76
2021/11/20 09:43:57;;;;;;;12.43;5.75;;;11.40;99.90;;;;;;5041704;28;20030;-76
2021/11/20 09:46:30;;;;;;;12.27;5.78;;;11.50;99.90;;;;;;5049105;28;20099;-75
2021/11/20 09:49:00;;;;;;;17.33;7.65;;;11.40;99.90;;;;;;5039222;28;20037;-76
2021/11/20 09:51:38;;;;;;;15.43;7.32;;;11.50;99.90;;;;;;5045617;28;20026;-77
2021/11/20 09:54:11;;;;;;;16.08;6.78;;;11.50;99.90;;;;;;5036903;28;20389;-76
2021/11/20 09:56:46;;;;;;;16.65;5.97;;;11.50;99.90;;;;;;5039769;28;20033;-76
2021/11/20 09:59:50;;;;;;;12.30;6.50;;;11.50;99.90;;;;;;5038237;28;20116;-76
2021/11/20 10:02:22;;;;;;;18.42;7.10;;;11.50;99.90;;;;;;5037889;28;20038;-76
2021/11/20 10:05:06;;;;;;;17.05;7.50;;;11.50;99.90;;;;;;5053971;28;20040;-74
2021/11/20 10:07:36;;;;;;;17.35;6.68;;;11.50;99.90;;;;;;5044801;28;20644;-76
2021/11/20 10:10:05;;;;;;;24.10;10.27;;;11.50;99.90;;;;;;5043914;28;20029;-75
2021/11/20 10:12:44;;;;;;;24.20;10.32;;;11.50;99.90;;;;;;5043564;28;20048;-75
2021/11/20 10:15:19;;;;;;;14.65;7.30;;;11.60;99.90;;;;;;5044642;28;20037;-75
2021/11/20 10:17:52;;;;;;;15.07;6.82;;;11.50;99.90;;;;;;5044257;28;20096;-77
2021/11/20 10:20:41;;;;;;;20.02;7.75;;;11.50;99.90;;;;;;5039893;28;20083;-77
2021/11/20 10:23:09;;;;;;;18.27;8.50;;;11.50;99.90;;;;;;5030972;28;20037;-78
2021/11/20 10:26:25;;;;;;;23.67;7.68;;;11.40;99.90;;;;;;5034749;28;20060;-75
2021/11/20 10:29:28;;;;;;;14.00;6.53;;;11.50;99.90;;;;;;5040704;28;20029;-78
2021/11/20 10:32:31;;;;;;;19.08;7.05;;;11.40;99.90;;;;;;5033263;28;20382;-76
2021/11/20 10:35:00;;;;;;;16.83;7.45;;;11.50;99.90;;;;;;5044902;28;20073;-74
2021/11/20 10:37:40;;;;;;;17.77;7.80;;;11.40;99.90;;;;;;5038530;28;20026;-76
2021/11/20 10:40:17;;;;;;;18.30;6.72;;;11.50;99.90;;;;;;5035581;28;20057;-74
2021/11/20 10:42:52;;;;;;;17.00;6.97;;;11.50;99.90;;;;;;5044391;28;20034;-74
2021/11/20 10:45:34;;;;;;;18.13;7.68;;;11.40;99.90;;;;;;5033290;28;20048;-76
2021/11/20 10:48:13;;;;;;;18.67;8.45;;;11.60;99.90;;;;;;5030589;28;20037;-78
2021/11/20 10:50:44;;;;;;;13.95;6.50;;;11.50;99.90;;;;;;5043918;28;20035;-75
2021/11/20 10:53:38;;;;;;;15.95;6.25;;;11.60;99.90;;;;;;5042880;28;20049;-76
2021/11/20 10:56:12;;;;;;;15.50;7.70;;;11.60;99.90;;;;;;5040588;28;20414;-76
2021/11/20 10:59:21;;;;;;;21.15;7.90;;;11.60;99.90;;;;;;5041504;28;20033;-78
2021/11/20 11:02:03;;;;;;;20.95;6.15;;;11.60;99.90;;;;;;5030240;28;20507;-74
2021/11/20 11:05:02;;;;;;;13.93;6.53;;;11.60;99.90;;;;;;5040439;28;20024;-76
2021/11/20 11:07:47;;;;;;;20.00;6.97;;;11.60;99.90;;;;;;5062901;28;20037;-77
2021/11/20 11:10:24;;;;;;;16.00;6.63;;;11.50;99.90;;;;;;5060123;28;20033;-76
2021/11/20 11:12:54;;;;;;;13.13;6.40;;;11.50;99.90;;;;;;5024496;28;20037;-76
2021/11/20 11:15:53;;;;;;;11.70;5.80;;;11.50;99.90;;;;;;5041612;28;20099;-79
2021/11/20 11:18:30;;;;;;;16.05;7.38;;;11.50;99.90;;;;;;5046070;28;20033;-75
2021/11/20 11:21:30;;;;;;;18.10;6.63;;;11.50;99.90;;;;;;5040104;28;20466;-75
2021/11/20 11:24:21;;;;;;;19.08;7.63;;;11.50;99.90;;;;;;5045059;28;20033;-76
2021/11/20 11:27:30;;;;;;;13.90;6.25;;;11.50;99.90;;;;;;5042596;28;20041;-75
2021/11/20 11:30:20;;;;;;;16.02;7.78;;;11.50;99.90;;;;;;5014087;28;20056;-76
2021/11/20 11:32:46;;;;;;;15.40;6.70;;;11.50;99.90;;;;;;5043378;28;20025;-75
2021/11/20 11:35:35;;;;;;;14.25;7.25;;;11.50;99.90;;;;;;5058814;28;20685;-77
2021/11/20 11:38:12;;;;;;;16.98;7.25;;;11.50;99.90;;;;;;5042079;28;20029;-77
2021/11/20 11:41:01;;;;;;;15.93;6.78;;;11.50;99.90;;;;;;5042104;28;20064;-77
2021/11/20 11:44:01;;;;;;;16.10;7.35;;;11.50;99.90;;;;;;5042193;28;20033;-74
2021/11/20 11:46:29;;;;;;;12.50;6.38;;;11.50;99.90;;;;;;5043052;28;20033;-75
2021/11/20 11:49:12;;;;;;;13.90;6.72;;;11.50;99.90;;;;;;5041841;28;20112;-75
2021/11/20 11:52:16;;;;;;;19.55;7.90;;;11.50;99.90;;;;;;5036575;28;20056;-76
2021/11/20 11:54:47;;;;;;;14.63;6.70;;;11.40;99.90;;;;;;5040295;28;20411;-74
2021/11/20 11:57:13;;;;;;;17.40;7.40;;;11.40;99.90;;;;;;5040195;28;20034;-76
2021/11/20 11:59:49;;;;;;;20.77;8.20;;;11.40;99.90;;;;;;5042996;28;20021;-78
2021/11/20 12:02:20;;;;;;;14.93;6.40;;;11.40;99.90;;;;;;5043008;28;20030;-78
2021/11/20 12:04:53;;;;;;;18.98;7.75;;;11.40;99.90;;;;;;5042287;28;20073;-78
2021/11/20 12:07:25;;;;;;;17.58;7.28;;;11.40;99.90;;;;;;5042038;28;20029;-78
2021/11/20 12:10:16;;;;;;;17.90;8.07;;;11.40;99.90;;;;;;5040151;28;20108;-79
2021/11/20 12:13:04;;;;;;;19.50;7.30;;;11.40;99.90;;;;;;5039843;28;20022;-75
2021/11/20 12:15:48;;;;;;;25.38;7.82;;;11.40;99.90;;;;;;5039215;28;20040;-74
2021/11/20 12:18:28;;;;;;;19.35;7.85;;;11.40;99.90;;;;;;5043347;28;20644;-74
2021/11/20 12:21:47;;;;;;;22.38;8.60;;;11.40;99.90;;;;;;5041754;28;20025;-77
2021/11/20 12:24:21;;;;;;;16.15;6.45;;;11.30;99.90;;;;;;4983374;28;20031;-76
2021/11/20 12:26:51;;;;;;;20.23;8.10;;;11.30;99.90;;;;;;4969285;28;20054;-75
2021/11/20 12:29:59;;;;;;;15.73;7.07;;;11.40;99.90;;;;;;5017701;28;20107;-76
2021/11/20 12:32:54;;;;;;;15.30;7.70;;;11.30;99.90;;;;;;5002359;28;20026;-76
2021/11/20 12:35:26;;;;;;;21.95;7.07;;;11.30;99.90;;;;;;5004304;28;20105;-77
2021/11/20 12:38:04;;;;;;;21.33;7.88;;;11.30;99.90;;;;;;5030136;28;20050;-79
2021/11/20 12:40:47;;;;;;;19.85;7.78;;;11.30;99.90;;;;;;5040191;28;20033;-77
2021/11/20 12:43:41;;;;;;;17.15;7.80;;;11.30;99.90;;;;;;5059384;28;20405;-75
2021/11/20 12:46:31;;;;;;;22.75;8.27;;;11.30;99.90;;;;;;5038271;28;20083;-75
2021/11/20 12:49:05;;;;;;;24.95;8.55;;;11.20;99.90;;;;;;5046092;28;20105;-77
2021/11/20 12:51:58;;;;;;;19.65;8.70;;;11.30;99.90;;;;;;5039401;28;20034;-76
2021/11/20 12:54:44;;;;;;;18.15;7.40;;;11.20;99.90;;;;;;5026097;28;20045;-76
2021/11/20 12:57:41;;;;;;;15.43;7.50;;;11.20;99.90;;;;;;5026445;28;20026;-77
2021/11/20 13:00:11;;;;;;;19.65;8.05;;;11.20;99.90;;;;;;5040137;28;20397;-76
2021/11/20 13:03:04;;;;;;;18.75;7.72;;;11.10;99.90;;;;;;5064262;28;20497;-73
2021/11/20 13:05:56;;;;;;;18.02;8.30;;;11.10;99.90;;;;;;5065342;28;20029;-76
2021/11/20 13:08:22;;;;;;;17.65;7.95;;;11.10;99.90;;;;;;5055452;28;20033;-76
2021/11/20 13:11:09;;;;;;;23.20;9.15;;;11.10;99.90;;;;;;5065178;28;20029;-80